sensor_id;sensor_type;location;lat;lon;timestamp;temperature;humidity
40153;DHT22;26371;56.992;23.912;2022-09-20T00:06:59;11.50;99.90
40153;DHT22;26371;56.992;23.912;2022-09-20T00:09:30;11.50;99.90
40153;DHT22;26371;56.992;23.912;2022-09-20T00:12:05;11.50;99.90
40153;DHT22;26371;56.992;23.912;2022-09-20T00:19:00;11.50;99.90
40153;DHT22;26371;56.992;23.912;2022-09-20T00:21:33;11.50;99.90
40153;DHT22;26371;56.992;23.912;2022-09-20T00:24:09;11.50;99.90
40153;DHT22;26371;56.992;23.912;2022-09-20T00:26:44;11.50;99.90
40153;DHT22;26371;56.992;23.912;2022-09-20T00:29:13;11.40;99.90
40153;DHT22;26371;56.992;23.912;2022-09-20T00:31:43;11.40;99.90
40153;DHT22;26371;56.992;23.912;2022-09-20T00:34:12;11.40;99.90
40153;DHT22;26371;56.992;23.912;2022-09-20T00:36:58;10.50;99.90
40153;DHT22;26371;56.992;23.912;2022-09-20T00:39:29;11.30;99.90
40153;DHT22;26371;56.992;23.912;2022-09-20T00:42:08;11.30;99.90
40153;DHT22;26371;56.992;23.912;2022-09-20T00:44:46;11.40;99.90
40153;DHT22;26371;56.992;23.912;2022-09-20T00:47:23;12.00;99.90
40153;DHT22;26371;56.992;23.912;2022-09-20T00:50:25;11.40;99.90
40153;DHT22;26371;56.992;23.912;2022-09-20T00:57:18;11.40;99.90
40153;DHT22;26371;56.992;23.912;2022-09-20T00:59:48;11.40;99.90
40153;DHT22;26371;56.992;23.912;2022-09-20T01:12:04;11.50;99.90
40153;DHT22;26371;56.992;23.912;2022-09-20T01:14:36;11.30;99.90
40153;DHT22;26371;56.992;23.912;2022-09-20T01:17:05;11.20;99.90
40153;DHT22;26371;56.992;23.912;2022-09-20T01:19:40;11.30;99.90
40153;DHT22;26371;56.992;23.912;2022-09-20T01:25:49;11.30;99.90
40153;DHT22;26371;56.992;23.912;2022-09-20T01:28:24;11.20;99.90
40153;DHT22;26371;56.992;23.912;2022-09-20T01:30:58;11.30;99.90
40153;DHT22;26371;56.992;23.912;2022-09-20T01:33:47;11.10;99.90
40153;DHT22;26371;56.992;23.912;2022-09-20T01:36:23;11.20;99.90
40153;DHT22;26371;56.992;23.912;2022-09-20T01:38:59;11.30;99.90
40153;DHT22;26371;56.992;23.912;2022-09-20T01:44:36;11.20;99.90
40153;DHT22;26371;56.992;23.912;2022-09-20T01:47:13;11.20;99.90
40153;DHT22;26371;56.992;23.912;2022-09-20T01:57:33;11.20;99.90
40153;DHT22;26371;56.992;23.912;2022-09-20T02:00:16;11.50;99.90
40153;DHT22;26371;56.992;23.912;2022-09-20T02:07:36;11.30;99.90
40153;DHT22;26371;56.992;23.912;2022-09-20T02:10:39;11.30;99.90
40153;DHT22;26371;56.992;23.912;2022-09-20T02:17:50;11.30;99.90
40153;DHT22;26371;56.992;23.912;2022-09-20T02:20:31;11.20;99.90
40153;DHT22;26371;56.992;23.912;2022-09-20T02:27:08;11.30;99.90
40153;DHT22;26371;56.992;23.912;2022-09-20T02:29:45;11.20;99.90
40153;DHT22;26371;56.992;23.912;2022-09-20T02:35:55;11.60;99.90
40153;DHT22;26371;56.992;23.912;2022-09-20T02:38:38;11.30;99.90
40153;DHT22;26371;56.992;23.912;2022-09-20T02:41:40;11.20;99.90
40153;DHT22;26371;56.992;23.912;2022-09-20T02:44:51;11.20;99.90
40153;DHT22;26371;56.992;23.912;2022-09-20T02:47:30;11.20;99.90
40153;DHT22;26371;56.992;23.912;2022-09-20T02:59:02;11.10;99.90
40153;DHT22;26371;56.992;23.912;2022-09-20T03:08:38;11.30;99.90
40153;DHT22;26371;56.992;23.912;2022-09-20T03:11:16;12.30;99.90
40153;DHT22;26371;56.992;23.912;2022-09-20T03:13:58;11.40;99.90
40153;DHT22;26371;56.992;23.912;2022-09-20T03:20:20;11.50;99.90
40153;DHT22;26371;56.992;23.912;2022-09-20T03:26:54;11.50;99.90
40153;DHT22;26371;56.992;23.912;2022-09-20T03:29:44;10.60;99.90
40153;DHT22;26371;56.992;23.912;2022-09-20T03:32:30;11.50;99.90
40153;DHT22;26371;56.992;23.912;2022-09-20T03:35:18;11.60;99.90
40153;DHT22;26371;56.992;23.912;2022-09-20T03:38:00;11.30;99.90
40153;DHT22;26371;56.992;23.912;2022-09-20T03:43:51;11.70;99.90
40153;DHT22;26371;56.992;23.912;2022-09-20T03:51:18;11.10;99.90
40153;DHT22;26371;56.992;23.912;2022-09-20T03:54:23;11.60;99.90
40153;DHT22;26371;56.992;23.912;2022-09-20T03:57:10;11.60;99.90
40153;DHT22;26371;56.992;23.912;2022-09-20T04:00:07;11.70;99.90
40153;DHT22;26371;56.992;23.912;2022-09-20T04:03:18;11.70;99.90
40153;DHT22;26371;56.992;23.912;2022-09-20T04:06:00;10.10;99.90
40153;DHT22;26371;56.992;23.912;2022-09-20T04:08:48;11.60;99.90
40153;DHT22;26371;56.992;23.912;2022-09-20T04:16:33;11.50;99.90
40153;DHT22;26371;56.992;23.912;2022-09-20T04:19:11;11.50;99.90
40153;DHT22;26371;56.992;23.912;2022-09-20T04:21:50;11.60;99.90
40153;DHT22;26371;56.992;23.912;2022-09-20T04:24:28;11.80;99.90
40153;DHT22;26371;56.992;23.912;2022-09-20T04:27:07;11.60;99.90
40153;DHT22;26371;56.992;23.912;2022-09-20T04:29:43;11.50;99.90
40153;DHT22;26371;56.992;23.912;2022-09-20T04:36:58;11.40;99.90
40153;DHT22;26371;56.992;23.912;2022-09-20T04:39:39;11.40;99.90
40153;DHT22;26371;56.992;23.912;2022-09-20T04:46:00;11.50;99.90
40153;DHT22;26371;56.992;23.912;2022-09-20T04:51:53;11.60;99.90
40153;DHT22;26371;56.992;23.912;2022-09-20T04:58:12;11.60;99.90
40153;DHT22;26371;56.992;23.912;2022-09-20T05:05:39;11.60;99.90
40153;DHT22;26371;56.992;23.912;2022-09-20T05:08:48;11.70;99.90
40153;DHT22;26371;56.992;23.912;2022-09-20T05:15:56;11.60;99.90
40153;DHT22;26371;56.992;23.912;2022-09-20T05:18:52;11.60;99.90
40153;DHT22;26371;56.992;23.912;2022-09-20T05:30:03;11.70;99.90
40153;DHT22;26371;56.992;23.912;2022-09-20T05:32:46;11.60;99.90
40153;DHT22;26371;56.992;23.912;2022-09-20T05:35:23;11.60;99.90
40153;DHT22;26371;56.992;23.912;2022-09-20T05:38:00;11.60;99.90
40153;DHT22;26371;56.992;23.912;2022-09-20T05:40:39;11.60;99.90
40153;DHT22;26371;56.992;23.912;2022-09-20T05:43:22;11.60;99.90
40153;DHT22;26371;56.992;23.912;2022-09-20T05:46:03;11.60;99.90
40153;DHT22;26371;56.992;23.912;2022-09-20T05:48:39;11.60;99.90
40153;DHT22;26371;56.992;23.912;2022-09-20T05:51:25;11.80;99.90
40153;DHT22;26371;56.992;23.912;2022-09-20T05:54:15;11.60;99.90
40153;DHT22;26371;56.992;23.912;2022-09-20T05:56:54;11.70;99.90
40153;DHT22;26371;56.992;23.912;2022-09-20T05:59:37;11.70;99.90
40153;DHT22;26371;56.992;23.912;2022-09-20T06:02:21;11.70;99.90
40153;DHT22;26371;56.992;23.912;2022-09-20T06:05:00;11.70;99.90
40153;DHT22;26371;56.992;23.912;2022-09-20T06:10:57;11.70;99.90
40153;DHT22;26371;56.992;23.912;2022-09-20T06:13:37;11.70;99.90
40153;DHT22;26371;56.992;23.912;2022-09-20T06:16:15;11.70;99.90
40153;DHT22;26371;56.992;23.912;2022-09-20T06:18:52;11.70;99.90
40153;DHT22;26371;56.992;23.912;2022-09-20T06:21:32;11.70;99.90
40153;DHT22;26371;56.992;23.912;2022-09-20T06:24:04;11.60;99.90
40153;DHT22;26371;56.992;23.912;2022-09-20T06:26:40;11.60;99.90
40153;DHT22;26371;56.992;23.912;2022-09-20T06:29:11;11.60;99.90
40153;DHT22;26371;56.992;23.912;2022-09-20T06:35:08;11.60;99.90
40153;DHT22;26371;56.992;23.912;2022-09-20T06:37:43;11.60;99.90
40153;DHT22;26371;56.992;23.912;2022-09-20T06:40:37;11.50;99.90
40153;DHT22;26371;56.992;23.912;2022-09-20T06:43:23;11.50;99.90
40153;DHT22;26371;56.992;23.912;2022-09-20T06:45:52;11.60;99.90
40153;DHT22;26371;56.992;23.912;2022-09-20T06:48:21;11.60;99.90
40153;DHT22;26371;56.992;23.912;2022-09-20T06:50:51;11.60;99.90
40153;DHT22;26371;56.992;23.912;2022-09-20T06:57:35;11.70;99.90
40153;DHT22;26371;56.992;23.912;2022-09-20T07:00:06;11.60;99.90
40153;DHT22;26371;56.992;23.912;2022-09-20T07:02:43;11.60;99.90
40153;DHT22;26371;56.992;23.912;2022-09-20T07:05:46;11.70;99.90
40153;DHT22;26371;56.992;23.912;2022-09-20T07:08:15;11.70;99.90
40153;DHT22;26371;56.992;23.912;2022-09-20T07:10:44;11.80;99.90
40153;DHT22;26371;56.992;23.912;2022-09-20T07:13:24;12.00;99.90
40153;DHT22;26371;56.992;23.912;2022-09-20T07:15:59;11.50;99.90
40153;DHT22;26371;56.992;23.912;2022-09-20T07:18:30;12.10;99.90
40153;DHT22;26371;56.992;23.912;2022-09-20T07:21:01;10.30;99.90
40153;DHT22;26371;56.992;23.912;2022-09-20T07:23:33;12.00;99.90
40153;DHT22;26371;56.992;23.912;2022-09-20T07:26:01;12.10;99.90
40153;DHT22;26371;56.992;23.912;2022-09-20T07:28:33;12.30;99.90
40153;DHT22;26371;56.992;23.912;2022-09-20T07:31:31;12.10;99.90
40153;DHT22;26371;56.992;23.912;2022-09-20T07:34:05;12.30;99.90
40153;DHT22;26371;56.992;23.912;2022-09-20T07:36:34;12.40;99.90
40153;DHT22;26371;56.992;23.912;2022-09-20T07:39:03;12.50;99.90
40153;DHT22;26371;56.992;23.912;2022-09-20T07:42:07;12.40;99.90
40153;DHT22;26371;56.992;23.912;2022-09-20T07:44:37;12.60;99.90
40153;DHT22;26371;56.992;23.912;2022-09-20T07:47:09;12.60;99.90
40153;DHT22;26371;56.992;23.912;2022-09-20T07:49:40;12.60;99.90
40153;DHT22;26371;56.992;23.912;2022-09-20T07:52:17;12.60;99.90
40153;DHT22;26371;56.992;23.912;2022-09-20T07:54:46;12.70;99.90
40153;DHT22;26371;56.992;23.912;2022-09-20T07:57:15;12.60;99.90
40153;DHT22;26371;56.992;23.912;2022-09-20T07:59:46;12.70;99.90
40153;DHT22;26371;56.992;23.912;2022-09-20T08:02:15;12.70;99.90
40153;DHT22;26371;56.992;23.912;2022-09-20T08:04:44;12.70;99.90
40153;DHT22;26371;56.992;23.912;2022-09-20T08:07:13;12.80;99.90
40153;DHT22;26371;56.992;23.912;2022-09-20T08:09:42;12.90;99.90
40153;DHT22;26371;56.992;23.912;2022-09-20T08:16:26;13.00;99.90
40153;DHT22;26371;56.992;23.912;2022-09-20T08:18:57;13.10;99.90
40153;DHT22;26371;56.992;23.912;2022-09-20T08:21:29;13.20;99.90
40153;DHT22;26371;56.992;23.912;2022-09-20T08:24:32;13.30;99.90
40153;DHT22;26371;56.992;23.912;2022-09-20T08:27:01;13.40;99.90
40153;DHT22;26371;56.992;23.912;2022-09-20T08:29:32;13.90;99.90
40153;DHT22;26371;56.992;23.912;2022-09-20T08:32:03;13.80;99.90
40153;DHT22;26371;56.992;23.912;2022-09-20T08:35:00;13.80;99.90
40153;DHT22;26371;56.992;23.912;2022-09-20T08:37:30;13.90;99.90
40153;DHT22;26371;56.992;23.912;2022-09-20T08:39:59;14.00;99.90
40153;DHT22;26371;56.992;23.912;2022-09-20T08:46:31;14.10;99.90
40153;DHT22;26371;56.992;23.912;2022-09-20T08:49:05;14.10;99.90
40153;DHT22;26371;56.992;23.912;2022-09-20T08:51:39;14.00;99.90
40153;DHT22;26371;56.992;23.912;2022-09-20T08:54:14;13.80;99.90
40153;DHT22;26371;56.992;23.912;2022-09-20T08:56:44;13.70;99.90
40153;DHT22;26371;56.992;23.912;2022-09-20T08:59:16;13.50;99.90
40153;DHT22;26371;56.992;23.912;2022-09-20T09:01:47;13.40;99.90
40153;DHT22;26371;56.992;23.912;2022-09-20T09:04:20;13.30;99.90
40153;DHT22;26371;56.992;23.912;2022-09-20T09:06:50;13.20;99.90
40153;DHT22;26371;56.992;23.912;2022-09-20T09:09:21;13.20;99.90
40153;DHT22;26371;56.992;23.912;2022-09-20T09:11:52;13.10;99.90
40153;DHT22;26371;56.992;23.912;2022-09-20T09:14:25;13.10;99.90
40153;DHT22;26371;56.992;23.912;2022-09-20T09:20:17;13.40;99.90
40153;DHT22;26371;56.992;23.912;2022-09-20T09:23:24;13.60;99.90
40153;DHT22;26371;56.992;23.912;2022-09-20T09:25:54;13.80;99.90
40153;DHT22;26371;56.992;23.912;2022-09-20T09:28:25;14.10;99.90
40153;DHT22;26371;56.992;23.912;2022-09-20T09:31:11;14.20;99.90
40153;DHT22;26371;56.992;23.912;2022-09-20T09:33:45;14.20;99.90
40153;DHT22;26371;56.992;23.912;2022-09-20T09:36:16;14.10;99.90
40153;DHT22;26371;56.992;23.912;2022-09-20T09:38:49;14.00;99.90
40153;DHT22;26371;56.992;23.912;2022-09-20T09:41:23;13.90;99.90
40153;DHT22;26371;56.992;23.912;2022-09-20T09:44:01;13.80;99.90
40153;DHT22;26371;56.992;23.912;2022-09-20T09:46:32;13.70;99.90
40153;DHT22;26371;56.992;23.912;2022-09-20T09:52:40;13.80;99.90
40153;DHT22;26371;56.992;23.912;2022-09-20T09:55:46;13.90;99.90
40153;DHT22;26371;56.992;23.912;2022-09-20T09:58:44;14.00;99.90
40153;DHT22;26371;56.992;23.912;2022-09-20T10:08:41;14.40;99.90
40153;DHT22;26371;56.992;23.912;2022-09-20T10:11:22;14.30;99.90
40153;DHT22;26371;56.992;23.912;2022-09-20T10:14:01;14.30;99.90
40153;DHT22;26371;56.992;23.912;2022-09-20T10:16:44;14.40;99.90
40153;DHT22;26371;56.992;23.912;2022-09-20T10:48:30;13.70;99.90
40153;DHT22;26371;56.992;23.912;2022-09-20T10:51:06;13.70;99.90
40153;DHT22;26371;56.992;23.912;2022-09-20T11:40:41;14.90;99.90
40153;DHT22;26371;56.992;23.912;2022-09-20T11:43:15;14.90;99.90
40153;DHT22;26371;56.992;23.912;2022-09-20T11:45:48;14.80;99.90
40153;DHT22;26371;56.992;23.912;2022-09-20T11:48:23;14.70;99.90
40153;DHT22;26371;56.992;23.912;2022-09-20T11:56:20;15.00;99.90
40153;DHT22;26371;56.992;23.912;2022-09-20T20:27:55;12.30;99.90
40153;DHT22;26371;56.992;23.912;2022-09-20T20:45:50;12.10;99.90
40153;DHT22;26371;56.992;23.912;2022-09-20T20:51:01;12.00;99.90
40153;DHT22;26371;56.992;23.912;2022-09-20T20:53:35;12.00;99.90
40153;DHT22;26371;56.992;23.912;2022-09-20T21:04:41;12.00;99.90
40153;DHT22;26371;56.992;23.912;2022-09-20T21:09:44;12.00;99.90
40153;DHT22;26371;56.992;23.912;2022-09-20T21:12:52;12.10;99.90
40153;DHT22;26371;56.992;23.912;2022-09-20T21:15:21;12.10;99.90
40153;DHT22;26371;56.992;23.912;2022-09-20T21:17:51;12.10;99.90
40153;DHT22;26371;56.992;23.912;2022-09-20T21:25:39;12.10;99.90
40153;DHT22;26371;56.992;23.912;2022-09-20T21:30:39;12.10;99.90
40153;DHT22;26371;56.992;23.912;2022-09-20T21:33:08;12.10;99.90
40153;DHT22;26371;56.992;23.912;2022-09-20T21:38:53;12.20;99.90
40153;DHT22;26371;56.992;23.912;2022-09-20T21:46:28;12.00;99.90
40153;DHT22;26371;56.992;23.912;2022-09-20T21:49:12;12.00;99.90
40153;DHT22;26371;56.992;23.912;2022-09-20T21:52:12;11.90;99.90
40153;DHT22;26371;56.992;23.912;2022-09-20T22:00:58;11.70;99.90
40153;DHT22;26371;56.992;23.912;2022-09-20T22:08:58;11.60;99.90
